createdAt,value
2017-11-07T00:00:57.114Z,6.80
2017-11-07T00:03:25.252Z,6.80
2017-11-07T00:05:53.436Z,6.80
2017-11-07T00:08:21.573Z,6.90
2017-11-07T00:10:50.613Z,6.90
2017-11-07T00:13:18.757Z,6.90
2017-11-07T00:15:46.890Z,6.90
2017-11-07T00:18:15.041Z,6.90
2017-11-07T00:20:43.180Z,6.90
2017-11-07T00:23:11.356Z,6.80
2017-11-07T00:25:39.485Z,6.80
2017-11-07T00:28:07.626Z,6.80
2017-11-07T00:30:35.914Z,6.80
2017-11-07T00:33:04.050Z,6.80
2017-11-07T00:35:32.171Z,6.80
2017-11-07T00:38:00.358Z,6.70
2017-11-07T00:40:28.490Z,6.80
2017-11-07T00:42:56.661Z,6.80
2017-11-07T00:45:24.796Z,6.80
2017-11-07T00:47:52.940Z,6.80
2017-11-07T00:50:21.229Z,6.80
2017-11-07T00:52:49.352Z,6.80
2017-11-07T00:55:17.485Z,6.80
2017-11-07T00:57:46.426Z,6.70
2017-11-07T01:00:14.565Z,6.70
2017-11-07T01:02:43.484Z,6.70
2017-11-07T01:05:11.662Z,6.70
2017-11-07T01:07:39.810Z,6.60
2017-11-07T01:10:07.949Z,6.60
2017-11-07T01:12:37.017Z,6.80
2017-11-07T01:15:05.142Z,6.80
2017-11-07T01:17:33.284Z,6.80
2017-11-07T01:20:01.460Z,6.80
2017-11-07T01:22:29.589Z,6.90
2017-11-07T01:24:57.767Z,7.00
2017-11-07T01:27:25.893Z,7.00
2017-11-07T01:29:54.931Z,7.00
2017-11-07T01:32:23.069Z,7.00
2017-11-07T01:34:51.197Z,7.00
2017-11-07T01:37:19.360Z,7.00
2017-11-07T01:39:47.484Z,7.00
2017-11-07T01:42:15.661Z,7.00
2017-11-07T01:44:43.795Z,6.90
2017-11-07T01:47:12.067Z,6.90
2017-11-07T01:49:40.209Z,6.90
2017-11-07T01:52:08.337Z,7.00
2017-11-07T01:54:37.289Z,6.90
2017-11-07T01:57:05.421Z,6.90
2017-11-07T01:59:33.569Z,6.80
2017-11-07T02:02:01.861Z,6.80
2017-11-07T02:04:30.761Z,6.80
2017-11-07T02:06:58.948Z,6.80
2017-11-07T02:09:27.085Z,6.70
2017-11-07T02:11:56.013Z,6.60
2017-11-07T02:14:24.153Z,6.60
2017-11-07T02:16:53.217Z,6.50
2017-11-07T02:19:21.380Z,6.50
2017-11-07T02:21:49.520Z,6.50
2017-11-07T02:24:17.677Z,6.50
2017-11-07T02:26:46.576Z,6.60
2017-11-07T02:29:15.521Z,6.60
2017-11-07T02:31:43.671Z,6.60
2017-11-07T02:34:11.797Z,6.60
2017-11-07T02:36:40.818Z,6.70
2017-11-07T02:39:08.950Z,6.70
2017-11-07T02:41:37.158Z,6.70
2017-11-07T02:44:05.282Z,6.80
2017-11-07T02:46:33.498Z,6.70
2017-11-07T02:49:02.532Z,6.60
2017-11-07T02:51:30.701Z,6.60
2017-11-07T02:53:58.840Z,6.50
2017-11-07T02:56:26.981Z,6.50
2017-11-07T02:58:55.182Z,6.40
2017-11-07T03:01:24.070Z,6.50
2017-11-07T03:03:53.006Z,6.40
2017-11-07T03:06:21.160Z,6.40
2017-11-07T03:08:49.297Z,6.40
2017-11-07T03:11:17.424Z,6.30
2017-11-07T03:13:45.560Z,6.20
2017-11-07T03:16:14.524Z,6.30
2017-11-07T03:18:42.661Z,6.20
2017-11-07T03:21:10.784Z,6.30
2017-11-07T03:23:39.724Z,6.30
2017-11-07T03:26:07.852Z,6.30
2017-11-07T03:28:36.781Z,6.40
2017-11-07T03:31:04.913Z,6.30
2017-11-07T03:33:33.947Z,6.40
2017-11-07T03:36:02.072Z,6.40
2017-11-07T03:38:30.243Z,6.40
2017-11-07T03:40:58.417Z,6.30
2017-11-07T03:43:26.563Z,6.40
2017-11-07T03:45:54.746Z,6.40
2017-11-07T03:48:22.877Z,6.40
2017-11-07T03:50:51.140Z,6.40
2017-11-07T03:53:19.276Z,6.40
2017-11-07T03:55:47.415Z,6.30
2017-11-07T03:58:15.572Z,6.40
2017-11-07T04:00:43.708Z,6.30
2017-11-07T04:03:11.876Z,6.20
2017-11-07T04:05:40.039Z,6.10
2017-11-07T04:08:08.179Z,6.10
2017-11-07T04:10:36.444Z,6.10
2017-11-07T04:13:04.576Z,6.10
2017-11-07T04:15:32.744Z,6.20
2017-11-07T04:18:00.868Z,6.10
2017-11-07T04:20:29.011Z,6.10
2017-11-07T04:22:57.938Z,6.00
2017-11-07T04:25:26.209Z,6.00
2017-11-07T04:27:54.350Z,6.00
2017-11-07T04:30:23.240Z,6.00
2017-11-07T04:32:52.154Z,6.10
2017-11-07T04:35:20.282Z,6.10
2017-11-07T04:37:48.447Z,6.20
2017-11-07T04:40:16.596Z,6.20
2017-11-07T04:42:44.884Z,6.20
2017-11-07T04:45:13.021Z,6.10
2017-11-07T04:47:41.160Z,6.00
2017-11-07T04:50:09.317Z,6.00
2017-11-07T04:52:37.447Z,6.00
2017-11-07T04:55:05.762Z,6.00
2017-11-07T04:57:33.899Z,6.00
2017-11-07T05:00:02.044Z,6.00
2017-11-07T05:02:30.988Z,6.00
2017-11-07T05:04:59.130Z,6.00
2017-11-07T05:07:27.301Z,6.00
2017-11-07T05:09:55.433Z,6.10
2017-11-07T05:12:23.582Z,6.00
2017-11-07T05:14:51.855Z,6.10
2017-11-07T05:17:19.996Z,6.10
2017-11-07T05:19:48.266Z,6.10
2017-11-07T05:22:16.406Z,6.10
2017-11-07T05:24:44.545Z,6.20
2017-11-07T05:27:12.704Z,6.20
2017-11-07T05:29:40.859Z,6.30
2017-11-07T05:32:09.033Z,6.30
2017-11-07T05:34:37.174Z,6.40
2017-11-07T05:37:05.305Z,6.40
2017-11-07T05:39:34.252Z,6.40
2017-11-07T05:42:03.153Z,6.30
2017-11-07T05:44:31.332Z,6.30
2017-11-07T05:47:00.257Z,6.30
2017-11-07T05:49:28.395Z,6.30
2017-11-07T05:51:56.544Z,6.30
2017-11-07T05:54:24.725Z,6.40
2017-11-07T05:56:53.681Z,6.40
2017-11-07T05:59:21.858Z,6.30
2017-11-07T06:01:50.758Z,6.40
2017-11-07T06:04:18.931Z,6.40
2017-11-07T06:06:47.077Z,6.50
2017-11-07T06:09:15.373Z,6.40
2017-11-07T06:11:43.512Z,6.50
2017-11-07T06:14:11.647Z,6.40
2017-11-07T06:16:40.628Z,6.50
2017-11-07T06:19:08.778Z,6.50
2017-11-07T06:21:36.917Z,6.50
2017-11-07T06:24:05.080Z,6.50
2017-11-07T06:26:33.230Z,6.50
2017-11-07T06:29:01.406Z,6.60
2017-11-07T06:31:29.526Z,6.60
2017-11-07T06:33:57.794Z,6.60
2017-11-07T06:36:25.924Z,6.50
2017-11-07T06:38:54.093Z,6.50
2017-11-07T06:41:22.227Z,6.50
2017-11-07T06:43:50.377Z,6.50
2017-11-07T06:46:18.557Z,6.60
2017-11-07T06:48:46.685Z,6.50
2017-11-07T06:51:14.832Z,6.50
2017-11-07T06:53:43.105Z,6.40
2017-11-07T06:56:11.237Z,6.40
2017-11-07T06:58:39.425Z,6.40
2017-11-07T07:01:07.556Z,6.40
2017-11-07T07:03:35.730Z,6.50
2017-11-07T07:06:03.871Z,6.50
2017-11-07T07:08:32.006Z,6.60
2017-11-07T07:11:00.265Z,6.60
2017-11-07T07:13:29.165Z,6.60
2017-11-07T07:15:57.329Z,6.50
2017-11-07T07:18:26.228Z,6.60
2017-11-07T07:20:54.406Z,6.60
2017-11-07T07:23:22.573Z,6.60
2017-11-07T07:25:51.480Z,6.70
2017-11-07T07:28:19.745Z,6.70
2017-11-07T07:30:48.632Z,6.80
2017-11-07T07:33:16.796Z,6.70
2017-11-07T07:35:45.745Z,6.70
2017-11-07T07:38:13.880Z,6.70
2017-11-07T07:40:42.787Z,6.80
2017-11-07T07:43:11.065Z,6.80
2017-11-07T07:45:39.196Z,6.80
2017-11-07T07:48:07.489Z,6.80
2017-11-07T07:50:35.636Z,6.80
2017-11-07T07:53:03.769Z,6.80
2017-11-07T07:55:31.928Z,6.90
2017-11-07T07:58:00.072Z,6.90
2017-11-07T08:00:29.005Z,6.90
2017-11-07T08:02:57.149Z,6.90
2017-11-07T08:05:25.420Z,6.90
2017-11-07T08:07:53.577Z,7.00
2017-11-07T08:10:22.478Z,6.90
2017-11-07T08:12:51.445Z,6.80
2017-11-07T08:15:19.577Z,6.80
2017-11-07T08:17:47.713Z,6.80
2017-11-07T08:20:16.635Z,6.80
2017-11-07T08:22:44.768Z,6.70
2017-11-07T08:25:13.053Z,6.70
2017-11-07T08:27:42.000Z,6.80
2017-11-07T08:30:10.169Z,6.70
2017-11-07T08:32:38.329Z,6.80
2017-11-07T08:35:06.474Z,6.80
2017-11-07T08:37:35.425Z,7.00
2017-11-07T08:40:03.547Z,7.00
2017-11-07T08:42:31.694Z,7.00
2017-11-07T08:44:59.867Z,7.00
2017-11-07T08:47:28.764Z,7.10
2017-11-07T08:49:57.706Z,7.20
2017-11-07T08:52:25.833Z,7.10
2017-11-07T08:54:54.773Z,7.20
2017-11-07T08:57:23.668Z,7.30
2017-11-07T08:59:51.955Z,7.30
2017-11-07T09:02:20.105Z,7.40
2017-11-07T09:04:48.259Z,7.40
2017-11-07T09:07:16.421Z,7.40
2017-11-07T09:09:44.592Z,7.40
2017-11-07T09:12:13.511Z,7.50
2017-11-07T09:14:41.670Z,7.50
2017-11-07T09:17:09.936Z,7.50
2017-11-07T09:19:38.117Z,7.60
2017-11-07T09:22:06.259Z,7.70
2017-11-07T09:24:34.384Z,7.80
2017-11-07T09:27:02.580Z,7.70
2017-11-07T09:29:30.716Z,7.80
2017-11-07T09:31:58.897Z,7.80
2017-11-07T09:34:27.035Z,7.80
2017-11-07T09:36:55.195Z,7.90
2017-11-07T09:39:23.360Z,7.90
2017-11-07T09:41:51.494Z,8.00
2017-11-07T09:44:19.692Z,7.90
2017-11-07T09:46:47.832Z,7.90
2017-11-07T09:49:15.971Z,8.00
2017-11-07T09:51:44.126Z,8.00
2017-11-07T09:54:12.261Z,8.00
2017-11-07T09:56:40.421Z,8.00
2017-11-07T09:59:08.556Z,7.80
2017-11-07T10:01:36.824Z,7.90
2017-11-07T10:04:04.969Z,7.90
2017-11-07T10:06:33.113Z,8.00
2017-11-07T10:09:01.287Z,8.00
2017-11-07T10:11:29.437Z,8.10
2017-11-07T10:13:57.616Z,8.10
2017-11-07T10:16:26.517Z,8.10
2017-11-07T10:18:54.758Z,8.10
2017-11-07T10:21:22.919Z,8.10
2017-11-07T10:23:51.060Z,8.10
2017-11-07T10:26:19.209Z,8.00
2017-11-07T10:28:48.261Z,8.00
2017-11-07T10:31:16.396Z,7.90
2017-11-07T10:33:44.537Z,8.00
2017-11-07T10:36:13.460Z,8.00
2017-11-07T10:38:41.609Z,8.00
2017-11-07T10:41:10.659Z,8.00
2017-11-07T10:43:38.793Z,8.00
2017-11-07T10:46:06.934Z,8.00
2017-11-07T10:48:35.099Z,8.10
2017-11-07T10:51:03.245Z,8.20
2017-11-07T10:53:31.513Z,8.10
2017-11-07T10:55:59.650Z,8.10
2017-11-07T10:58:28.552Z,8.20
2017-11-07T11:00:56.714Z,8.20
2017-11-07T11:03:24.849Z,8.30
2017-11-07T11:05:53.041Z,8.40
2017-11-07T11:08:21.173Z,8.40
2017-11-07T11:10:49.450Z,8.40
2017-11-07T11:13:17.582Z,8.50
2017-11-07T11:15:45.720Z,8.50
2017-11-07T11:18:13.885Z,8.60
2017-11-07T11:20:42.025Z,8.60
2017-11-07T11:23:10.209Z,8.50
2017-11-07T11:25:38.349Z,8.50
2017-11-07T11:28:06.482Z,8.50
2017-11-07T11:30:34.754Z,8.60
2017-11-07T11:33:03.049Z,8.70
2017-11-07T11:35:31.173Z,8.70
2017-11-07T11:37:59.318Z,8.70
2017-11-07T11:40:28.254Z,8.50
2017-11-07T11:42:56.394Z,8.50
2017-11-07T11:45:24.530Z,8.50
2017-11-07T11:47:52.711Z,8.50
2017-11-07T11:50:20.824Z,8.50
2017-11-07T11:52:49.110Z,8.60
2017-11-07T11:55:17.238Z,8.70
2017-11-07T11:57:46.173Z,8.80
2017-11-07T12:00:14.320Z,8.80
2017-11-07T12:02:42.451Z,8.80
2017-11-07T12:05:10.625Z,8.90
2017-11-07T12:07:38.761Z,8.90
2017-11-07T12:10:07.033Z,9.00
2017-11-07T12:12:35.167Z,9.00
2017-11-07T12:15:03.349Z,9.00
2017-11-07T12:17:31.477Z,9.00
2017-11-07T12:19:59.609Z,9.00
2017-11-07T12:22:27.764Z,9.00
2017-11-07T12:24:56.670Z,9.00
2017-11-07T12:27:24.977Z,9.00
2017-11-07T12:29:53.119Z,8.90
2017-11-07T12:32:21.292Z,8.90
2017-11-07T12:34:50.229Z,8.90
2017-11-07T12:37:18.367Z,8.80
2017-11-07T12:39:46.531Z,8.80
2017-11-07T12:42:14.664Z,8.80
2017-11-07T12:44:42.874Z,8.80
2017-11-07T12:47:11.790Z,8.80
2017-11-07T12:49:39.923Z,8.80
2017-11-07T12:52:08.854Z,8.80
2017-11-07T12:54:36.992Z,8.80
2017-11-07T12:57:05.917Z,8.80
2017-11-07T12:59:34.058Z,8.70
2017-11-07T13:02:03.093Z,8.70
2017-11-07T13:04:31.242Z,8.70
2017-11-07T13:06:59.409Z,8.70
2017-11-07T13:09:28.317Z,8.70
2017-11-07T13:11:56.449Z,8.70
2017-11-07T13:14:24.669Z,8.80
2017-11-07T13:16:52.841Z,8.80
2017-11-07T13:19:21.117Z,8.80
2017-11-07T13:21:49.248Z,8.90
2017-11-07T13:24:17.395Z,8.90
2017-11-07T13:26:45.556Z,8.90
2017-11-07T13:29:13.742Z,8.90
2017-11-07T13:31:48.939Z,9.00
2017-11-07T13:34:18.005Z,9.00
2017-11-07T13:36:46.903Z,9.00
2017-11-07T13:39:15.797Z,8.90
2017-11-07T13:41:44.732Z,8.90
2017-11-07T13:44:12.863Z,8.80
2017-11-07T13:46:41.803Z,8.80
2017-11-07T13:49:09.944Z,8.80
2017-11-07T13:51:38.232Z,8.90
2017-11-07T13:54:06.363Z,8.80
2017-11-07T13:56:34.588Z,8.80
2017-11-07T13:59:02.701Z,8.80
2017-11-07T14:01:30.850Z,8.80
2017-11-07T14:03:59.010Z,8.80
2017-11-07T14:06:27.165Z,8.80
2017-11-07T14:08:55.444Z,8.80
2017-11-07T14:11:23.606Z,8.80
2017-11-07T14:13:51.744Z,8.80
2017-11-07T14:16:19.917Z,8.90
2017-11-07T14:18:48.048Z,8.80
2017-11-07T14:21:16.264Z,8.90
2017-11-07T14:23:44.422Z,8.80
2017-11-07T14:26:12.553Z,8.80
2017-11-07T14:28:40.837Z,8.80
2017-11-07T14:31:08.987Z,8.90
2017-11-07T14:33:37.905Z,8.80
2017-11-07T14:36:06.048Z,8.80
2017-11-07T14:38:34.969Z,8.80
2017-11-07T14:41:03.115Z,8.70
2017-11-07T14:43:32.185Z,8.70
2017-11-07T14:46:13.873Z,8.70
2017-11-07T14:48:42.043Z,8.70
2017-11-07T14:51:10.204Z,8.70
2017-11-07T14:53:38.337Z,8.70
2017-11-07T14:56:06.518Z,8.80
2017-11-07T14:58:34.663Z,8.80
2017-11-07T15:01:03.565Z,8.90
2017-11-07T15:03:31.841Z,8.90
2017-11-07T15:06:00.004Z,8.90
2017-11-07T15:08:28.934Z,8.90
2017-11-07T15:10:57.080Z,8.80
2017-11-07T15:13:25.261Z,8.90
2017-11-07T15:15:53.397Z,9.00
2017-11-07T15:18:21.700Z,8.90
2017-11-07T15:20:50.628Z,8.90
2017-11-07T15:23:18.791Z,8.90
2017-11-07T15:25:46.948Z,8.90
2017-11-07T15:28:15.093Z,8.80
2017-11-07T15:30:44.053Z,8.80
2017-11-07T15:33:12.183Z,8.70
2017-11-07T15:35:40.462Z,8.80
2017-11-07T15:38:08.597Z,8.80
2017-11-07T15:40:36.874Z,8.70
2017-11-07T15:43:05.046Z,8.70
2017-11-07T15:45:33.192Z,8.60
2017-11-07T15:48:01.437Z,8.60
2017-11-07T15:50:33.129Z,8.60
2017-11-07T15:53:01.300Z,8.70
2017-11-07T15:55:29.435Z,8.60
2017-11-07T15:57:57.600Z,8.60
2017-11-07T16:00:25.739Z,8.60
2017-11-07T16:02:53.874Z,8.70
2017-11-07T16:05:22.068Z,8.60
2017-11-07T16:07:50.240Z,8.60
2017-11-07T16:10:18.441Z,8.60
2017-11-07T16:12:46.620Z,8.60
2017-11-07T16:15:14.785Z,8.60
2017-11-07T16:17:42.956Z,8.60
2017-11-07T16:20:11.095Z,8.70
2017-11-07T16:22:39.271Z,8.70
2017-11-07T16:25:07.413Z,8.70
2017-11-07T16:27:35.576Z,8.70
2017-11-07T16:30:04.510Z,8.70
2017-11-07T16:32:32.657Z,8.70
2017-11-07T16:35:00.871Z,8.70
2017-11-07T16:37:29.018Z,8.70
2017-11-07T16:39:57.170Z,8.70
2017-11-07T16:42:26.102Z,8.60
2017-11-07T16:44:54.254Z,8.60
2017-11-07T16:47:22.448Z,8.60
2017-11-07T16:49:51.370Z,8.60
2017-11-07T16:52:19.552Z,8.50
2017-11-07T16:54:47.711Z,8.60
2017-11-07T16:57:15.885Z,8.60
2017-11-07T16:59:45.907Z,8.60
2017-11-07T17:02:14.041Z,8.60
2017-11-07T17:04:42.245Z,8.70
2017-11-07T17:07:10.407Z,8.70
2017-11-07T17:09:38.549Z,8.80
2017-11-07T17:12:06.722Z,8.80
2017-11-07T17:14:34.861Z,8.80
2017-11-07T17:17:03.933Z,8.70
2017-11-07T17:19:32.091Z,8.70
2017-11-07T17:22:00.242Z,8.70
2017-11-07T17:24:28.414Z,8.70
2017-11-07T17:26:56.544Z,8.70
2017-11-07T17:29:25.494Z,8.80
2017-11-07T17:31:53.634Z,8.80
2017-11-07T17:34:21.796Z,8.90
2017-11-07T17:36:50.074Z,8.90
2017-11-07T17:39:18.971Z,9.00
2017-11-07T17:41:47.151Z,9.00
2017-11-07T17:44:15.307Z,9.10
2017-11-07T17:46:44.269Z,9.10
2017-11-07T17:49:12.413Z,9.00
2017-11-07T17:51:40.551Z,9.00
2017-11-07T17:54:09.614Z,8.90
2017-11-07T17:56:37.760Z,8.90
2017-11-07T17:59:05.956Z,8.80
2017-11-07T18:01:34.115Z,8.80
2017-11-07T18:04:02.303Z,8.80
2017-11-07T18:06:30.489Z,8.70
2017-11-07T18:08:58.681Z,8.70
2017-11-07T18:11:26.832Z,8.60
2017-11-07T18:13:54.965Z,8.60
2017-11-07T18:16:23.171Z,8.70
2017-11-07T18:18:51.322Z,8.70
2017-11-07T18:21:19.507Z,8.70
2017-11-07T18:23:47.645Z,8.80
2017-11-07T18:26:15.779Z,8.80
2017-11-07T18:28:43.947Z,8.80
2017-11-07T18:31:12.090Z,8.70
2017-11-07T18:33:40.292Z,8.70
2017-11-07T18:36:08.449Z,8.60
2017-11-07T18:38:36.593Z,8.40
2017-11-07T18:41:04.859Z,8.40
2017-11-07T18:43:33.803Z,8.40
2017-11-07T18:46:01.947Z,8.30
2017-11-07T18:48:30.233Z,8.40
2017-11-07T18:50:58.390Z,8.40
2017-11-07T18:53:26.548Z,8.50
2017-11-07T18:55:54.743Z,8.50
2017-11-07T18:58:22.905Z,8.50
2017-11-07T19:00:51.037Z,8.50
2017-11-07T19:03:19.941Z,8.50
2017-11-07T19:05:48.233Z,8.50
2017-11-07T19:08:16.447Z,8.60
2017-11-07T19:10:44.600Z,8.50
2017-11-07T19:13:12.760Z,8.50
2017-11-07T19:15:40.918Z,8.50
2017-11-07T19:18:09.856Z,8.40
2017-11-07T19:20:38.011Z,8.30
2017-11-07T19:23:06.141Z,8.40
2017-11-07T19:25:35.189Z,8.30
2017-11-07T19:28:03.334Z,8.20
2017-11-07T19:30:31.524Z,8.30
2017-11-07T19:32:59.682Z,8.30
2017-11-07T19:35:27.854Z,8.40
2017-11-07T19:37:56.016Z,8.40
2017-11-07T19:40:24.965Z,8.40
2017-11-07T19:42:53.119Z,8.30
2017-11-07T19:45:21.309Z,8.30
2017-11-07T19:47:49.453Z,8.30
2017-11-07T19:50:17.613Z,8.30
2017-11-07T19:52:45.786Z,8.30
2017-11-07T19:55:13.928Z,8.30
2017-11-07T19:57:42.215Z,8.20
2017-11-07T20:00:10.354Z,8.20
2017-11-07T20:02:38.535Z,8.20
2017-11-07T20:05:06.684Z,8.20
2017-11-07T20:07:34.830Z,8.20
2017-11-07T20:10:03.034Z,8.20
2017-11-07T20:12:31.207Z,8.10
2017-11-07T20:14:59.424Z,8.20
2017-11-07T20:17:27.551Z,8.20
2017-11-07T20:19:55.739Z,8.20
2017-11-07T20:22:23.934Z,8.30
2017-11-07T20:24:52.143Z,8.30
2017-11-07T20:27:20.335Z,8.30
2017-11-07T20:29:48.490Z,8.30
2017-11-07T20:32:17.548Z,8.40
2017-11-07T20:34:45.689Z,8.40
2017-11-07T20:37:13.875Z,8.40
2017-11-07T20:39:42.009Z,8.30
2017-11-07T20:42:10.151Z,8.30
2017-11-07T20:44:38.338Z,8.30
2017-11-07T20:47:07.276Z,8.30
2017-11-07T20:49:35.549Z,8.30
2017-11-07T20:52:03.732Z,8.30
2017-11-07T20:54:31.882Z,8.40
2017-11-07T20:57:00.034Z,8.50
2017-11-07T20:59:28.222Z,8.40
2017-11-07T21:01:56.354Z,8.40
2017-11-07T21:04:24.659Z,8.40
2017-11-07T21:06:53.613Z,8.40
2017-11-07T21:09:21.765Z,8.40
2017-11-07T21:11:49.933Z,8.40
2017-11-07T21:14:18.078Z,8.50
2017-11-07T21:16:46.245Z,8.40
2017-11-07T21:19:14.401Z,8.40
2017-11-07T21:21:43.461Z,8.40
2017-11-07T21:24:11.609Z,8.40
2017-11-07T21:26:39.776Z,8.40
2017-11-07T21:29:07.929Z,8.40
2017-11-07T21:31:36.069Z,8.40
2017-11-07T21:34:04.394Z,8.50
2017-11-07T21:36:32.559Z,8.40
2017-11-07T21:39:00.769Z,8.50
2017-11-07T21:41:28.921Z,8.50
2017-11-07T21:43:57.070Z,8.50
2017-11-07T21:46:26.021Z,8.50
2017-11-07T21:48:54.205Z,8.50
2017-11-07T21:51:22.382Z,8.50
2017-11-07T21:53:50.521Z,8.50
2017-11-07T21:56:18.695Z,8.50
2017-11-07T21:58:46.977Z,8.60
2017-11-07T22:01:15.170Z,8.50
2017-11-07T22:03:43.298Z,8.50
2017-11-07T22:06:11.472Z,8.50
2017-11-07T22:08:39.653Z,8.40
2017-11-07T22:11:07.807Z,8.50
2017-11-07T22:13:36.122Z,8.50
2017-11-07T22:16:04.265Z,8.50
2017-11-07T22:18:32.407Z,8.50
2017-11-07T22:21:00.573Z,8.40
2017-11-07T22:23:28.707Z,8.40
2017-11-07T22:25:56.885Z,8.40
2017-11-07T22:28:25.033Z,8.40
2017-11-07T22:30:53.326Z,8.30
2017-11-07T22:33:21.481Z,8.30
2017-11-07T22:35:49.620Z,8.50
2017-11-07T22:38:17.797Z,8.50
2017-11-07T22:40:45.945Z,8.40
2017-11-07T22:43:14.137Z,8.40
2017-11-07T22:45:42.282Z,8.50
2017-11-07T22:48:10.414Z,8.40
2017-11-07T22:50:38.685Z,8.50
2017-11-07T22:53:06.876Z,8.50
2017-11-07T22:55:35.048Z,8.50
2017-11-07T22:58:03.182Z,8.40
2017-11-07T23:00:31.360Z,8.40
2017-11-07T23:02:59.497Z,8.30
2017-11-07T23:05:27.673Z,8.30
2017-11-07T23:07:55.992Z,8.40
2017-11-07T23:10:24.899Z,8.40
2017-11-07T23:12:53.069Z,8.40
2017-11-07T23:15:21.976Z,8.40
2017-11-07T23:17:50.144Z,8.40
2017-11-07T23:20:18.303Z,8.50
2017-11-07T23:22:46.440Z,8.60
2017-11-07T23:25:14.732Z,8.50
2017-11-07T23:27:42.870Z,8.50
2017-11-07T23:30:11.000Z,8.60
2017-11-07T23:32:39.163Z,8.60
2017-11-07T23:35:08.105Z,8.60
2017-11-07T23:37:36.260Z,8.60
2017-11-07T23:40:04.412Z,8.60
2017-11-07T23:42:33.446Z,8.50
2017-11-07T23:45:01.591Z,8.50
2017-11-07T23:47:29.758Z,8.60
2017-11-07T23:49:57.912Z,8.60
2017-11-07T23:52:26.819Z,8.60
2017-11-07T23:54:54.993Z,8.60
2017-11-07T23:57:23.888Z,8.60
2017-11-07T23:59:52.920Z,8.60
